createdAt,value
2022-12-01T00:00:10.235Z,47.00
2022-12-01T00:01:10.212Z,46.70
2022-12-01T00:02:10.354Z,47.10
2022-12-01T00:03:10.297Z,47.70
2022-12-01T00:04:10.175Z,48.70
2022-12-01T00:05:10.180Z,48.10
2022-12-01T00:06:10.153Z,47.90
2022-12-01T00:07:10.156Z,47.50
2022-12-01T00:08:10.161Z,46.80
2022-12-01T00:09:10.897Z,47.10
2022-12-01T00:10:10.126Z,47.50
2022-12-01T00:11:10.116Z,48.60
2022-12-01T00:12:10.113Z,48.50
2022-12-01T00:13:10.085Z,46.60
2022-12-01T00:14:10.076Z,47.70
2022-12-01T00:15:10.065Z,48.30
2022-12-01T00:16:10.074Z,47.30
2022-12-01T00:17:10.053Z,47.40
2022-12-01T00:18:10.032Z,48.70
2022-12-01T00:19:10.023Z,46.70
2022-12-01T00:20:10.002Z,46.30
2022-12-01T00:21:10.008Z,46.90
2022-12-01T00:22:09.997Z,45.80
2022-12-01T00:23:09.988Z,45.00
2022-12-01T00:24:09.959Z,48.10
2022-12-01T00:26:03.043Z,47.20
2022-12-01T00:27:02.949Z,46.60
2022-12-01T00:28:02.951Z,48.00
2022-12-01T00:29:02.471Z,46.80
2022-12-01T00:30:02.469Z,47.90
2022-12-01T00:31:02.444Z,47.80
2022-12-01T00:32:02.488Z,46.50
2022-12-01T00:33:02.396Z,45.60
2022-12-01T00:34:05.628Z,45.60
2022-12-01T00:35:03.379Z,48.10
2022-12-01T00:36:02.380Z,47.50
2022-12-01T00:37:02.341Z,49.00
2022-12-01T00:38:02.341Z,47.10
2022-12-01T00:39:02.329Z,46.40
2022-12-01T00:40:02.408Z,45.30
2022-12-01T00:41:02.321Z,47.10
2022-12-01T00:42:02.318Z,47.20
2022-12-01T00:43:02.290Z,49.10
2022-12-01T00:44:02.306Z,46.10
2022-12-01T00:45:02.332Z,47.20
2022-12-01T00:46:02.344Z,46.90
2022-12-01T00:47:02.238Z,47.40
2022-12-01T00:48:02.256Z,48.40
2022-12-01T00:49:02.262Z,47.00
2022-12-01T00:50:02.217Z,44.50
2022-12-01T00:51:02.216Z,46.00
2022-12-01T00:52:02.219Z,46.20
2022-12-01T00:53:02.231Z,47.10
2022-12-01T00:54:02.164Z,47.70
2022-12-01T00:55:02.259Z,47.70
2022-12-01T00:56:02.198Z,46.30
2022-12-01T00:57:02.122Z,47.40
2022-12-01T00:58:02.140Z,46.20
2022-12-01T00:59:02.159Z,46.50
2022-12-01T01:00:02.070Z,47.10
2022-12-01T01:01:02.278Z,46.30
2022-12-01T01:02:02.102Z,46.40
2022-12-01T01:03:02.091Z,45.00
2022-12-01T01:04:02.064Z,43.90
2022-12-01T01:05:02.037Z,46.50
2022-12-01T01:06:02.060Z,47.10
2022-12-01T01:07:02.037Z,45.20
2022-12-01T01:08:02.070Z,45.10
2022-12-01T01:09:02.079Z,45.10
2022-12-01T01:10:02.009Z,45.60
2022-12-01T01:11:01.998Z,43.80
2022-12-01T01:12:02.025Z,45.90
2022-12-01T01:13:01.962Z,45.30
2022-12-01T01:14:02.003Z,44.00
2022-12-01T01:15:01.969Z,44.50
2022-12-01T01:16:01.928Z,43.80
2022-12-01T01:17:01.965Z,45.10
2022-12-01T01:18:01.897Z,44.30
2022-12-01T01:19:01.957Z,44.20
2022-12-01T01:20:01.899Z,43.70
2022-12-01T01:21:01.872Z,40.90
2022-12-01T01:22:01.891Z,44.20
2022-12-01T01:23:01.945Z,44.40
2022-12-01T01:24:01.863Z,46.50
2022-12-01T01:25:01.805Z,45.80
2022-12-01T01:26:01.867Z,45.40
2022-12-01T01:27:01.797Z,44.60
2022-12-01T01:28:01.806Z,43.70
2022-12-01T01:29:01.778Z,43.30
2022-12-01T01:30:01.766Z,44.00
2022-12-01T01:31:01.771Z,44.40
2022-12-01T01:32:01.757Z,46.10
2022-12-01T01:33:01.713Z,45.00
2022-12-01T01:34:01.743Z,44.90
2022-12-01T01:35:01.698Z,44.50
2022-12-01T01:36:01.699Z,44.40
2022-12-01T01:37:01.704Z,44.70
2022-12-01T01:38:01.666Z,45.20
2022-12-01T01:39:01.640Z,45.00
2022-12-01T01:40:01.699Z,45.40
2022-12-01T01:41:01.630Z,45.40
2022-12-01T01:42:01.644Z,45.70
2022-12-01T01:43:01.599Z,45.60
2022-12-01T01:44:01.594Z,45.50
2022-12-01T01:45:01.593Z,45.20
2022-12-01T01:46:01.649Z,45.60
2022-12-01T01:47:01.591Z,45.80
2022-12-01T01:48:01.588Z,44.70
2022-12-01T01:49:01.609Z,45.60
2022-12-01T01:50:01.544Z,46.70
2022-12-01T01:51:01.528Z,43.40
2022-12-01T01:52:01.615Z,43.70
2022-12-01T01:53:01.539Z,44.40
2022-12-01T01:54:01.495Z,43.90
2022-12-01T01:55:01.539Z,44.60
2022-12-01T01:56:01.477Z,43.30
2022-12-01T01:57:01.540Z,44.00
2022-12-01T01:58:01.478Z,45.30
2022-12-01T01:59:01.460Z,44.00
2022-12-01T02:00:01.437Z,45.20
2022-12-01T02:01:01.477Z,45.20
2022-12-01T02:02:01.466Z,44.50
2022-12-01T02:03:01.482Z,43.20
2022-12-01T02:04:01.393Z,43.60
2022-12-01T02:05:01.402Z,43.00
2022-12-01T02:06:04.674Z,44.80
2022-12-01T02:07:01.410Z,44.60
2022-12-01T02:08:01.397Z,47.40
2022-12-01T02:09:01.323Z,44.90
2022-12-01T02:10:01.357Z,45.30
2022-12-01T02:11:01.341Z,45.60
2022-12-01T02:12:01.298Z,45.80
2022-12-01T02:13:01.300Z,47.20
2022-12-01T02:14:01.315Z,47.50
2022-12-01T02:15:01.316Z,46.50
2022-12-01T02:16:01.271Z,46.40
2022-12-01T02:17:01.310Z,45.30
2022-12-01T02:18:01.246Z,44.40
2022-12-01T02:19:01.280Z,43.70
2022-12-01T02:20:01.205Z,47.20
2022-12-01T02:21:01.201Z,44.30
2022-12-01T02:22:01.202Z,46.30
2022-12-01T02:23:01.235Z,48.70
2022-12-01T02:24:01.184Z,47.10
2022-12-01T02:25:01.244Z,46.10
2022-12-01T02:26:01.189Z,46.30
2022-12-01T02:27:01.169Z,47.80
2022-12-01T02:28:01.145Z,46.50
2022-12-01T02:29:01.154Z,48.50
2022-12-01T02:30:01.143Z,45.10
2022-12-01T02:31:01.138Z,48.50
2022-12-01T02:32:01.146Z,47.00
2022-12-01T02:33:01.093Z,45.60
2022-12-01T02:34:01.101Z,44.80
2022-12-01T02:35:01.097Z,46.40
2022-12-01T02:36:01.150Z,44.60
2022-12-01T02:37:01.044Z,46.20
2022-12-01T02:38:01.046Z,45.90
2022-12-01T02:39:01.034Z,47.80
2022-12-01T02:40:01.021Z,45.80
2022-12-01T02:41:01.067Z,46.00
2022-12-01T02:42:01.051Z,48.20
2022-12-01T02:43:01.059Z,46.20
2022-12-01T02:44:00.981Z,43.70
2022-12-01T02:45:00.962Z,44.90
2022-12-01T02:46:01.007Z,46.20
2022-12-01T02:47:00.981Z,45.10
2022-12-01T02:48:00.941Z,45.60
2022-12-01T02:49:00.915Z,46.60
2022-12-01T02:50:00.898Z,47.60
2022-12-01T02:51:00.912Z,46.50
2022-12-01T02:52:00.896Z,46.20
2022-12-01T02:53:00.878Z,47.30
2022-12-01T02:54:00.888Z,47.10
2022-12-01T02:55:00.839Z,47.00
2022-12-01T02:56:00.870Z,45.40
2022-12-01T02:57:00.864Z,47.10
2022-12-01T02:58:00.869Z,47.20
2022-12-01T02:59:00.880Z,48.40
2022-12-01T03:00:00.824Z,47.10
2022-12-01T03:01:00.807Z,47.30
2022-12-01T03:02:00.794Z,47.60
2022-12-01T03:03:00.930Z,46.60
2022-12-01T03:04:00.787Z,46.50
2022-12-01T03:05:00.753Z,47.50
2022-12-01T03:06:00.732Z,46.80
2022-12-01T03:07:00.810Z,48.60
2022-12-01T03:08:00.735Z,45.10
2022-12-01T03:09:00.732Z,46.10
2022-12-01T03:10:00.698Z,46.50
2022-12-01T03:11:00.694Z,45.60
2022-12-01T03:12:00.676Z,48.60
2022-12-01T03:13:00.663Z,46.90
2022-12-01T03:14:00.663Z,45.70
2022-12-01T03:15:00.633Z,46.10
2022-12-01T03:16:00.729Z,46.90
2022-12-01T03:17:00.617Z,48.10
2022-12-01T03:18:00.592Z,48.10
2022-12-01T03:19:00.617Z,48.60
2022-12-01T03:20:00.627Z,48.40
2022-12-01T03:21:00.587Z,47.60
2022-12-01T03:22:00.615Z,46.00
2022-12-01T03:23:00.541Z,47.40
2022-12-01T03:24:00.576Z,49.40
2022-12-01T03:25:00.536Z,45.90
2022-12-01T03:26:00.544Z,47.30
2022-12-01T03:27:00.504Z,49.90
2022-12-01T03:28:20.717Z,47.60
2022-12-01T03:29:01.597Z,47.70
2022-12-01T03:30:00.463Z,46.20
2022-12-01T03:31:00.513Z,47.20
2022-12-01T03:32:00.447Z,46.80
2022-12-01T03:33:00.445Z,47.10
2022-12-01T03:34:00.429Z,48.30
2022-12-01T03:35:00.425Z,49.70
2022-12-01T03:36:00.530Z,48.40
2022-12-01T03:37:00.399Z,49.40
2022-12-01T03:38:00.389Z,46.60
2022-12-01T03:39:00.409Z,46.60
2022-12-01T03:40:01.261Z,49.00
2022-12-01T03:41:00.358Z,48.00
2022-12-01T03:42:00.363Z,47.00
2022-12-01T03:43:00.342Z,47.10
2022-12-01T03:44:00.352Z,48.40
2022-12-01T03:45:00.331Z,46.30
2022-12-01T03:46:00.377Z,47.80
2022-12-01T03:47:00.319Z,49.10
2022-12-01T03:48:00.291Z,45.90
2022-12-01T03:49:00.278Z,48.00
2022-12-01T03:50:00.297Z,48.60
2022-12-01T03:51:00.246Z,48.20
2022-12-01T03:52:00.246Z,49.30
2022-12-01T03:53:00.217Z,48.10
2022-12-01T03:54:00.225Z,47.70
2022-12-01T03:55:00.225Z,46.10
2022-12-01T03:56:00.202Z,44.70
2022-12-01T03:57:00.193Z,46.90
2022-12-01T03:58:00.167Z,47.50
2022-12-01T03:59:00.149Z,46.10
2022-12-01T04:00:00.167Z,45.10
2022-12-01T04:01:00.151Z,46.10
2022-12-01T04:02:00.206Z,47.80
2022-12-01T04:03:00.156Z,46.60
2022-12-01T04:04:00.100Z,46.80
2022-12-01T04:05:00.117Z,48.20
2022-12-01T04:06:00.121Z,45.90
2022-12-01T04:07:00.079Z,46.30
2022-12-01T04:08:00.204Z,45.90
2022-12-01T04:09:00.043Z,48.10
2022-12-01T04:10:00.030Z,48.10
2022-12-01T04:11:00.078Z,49.10
2022-12-01T04:12:00.033Z,45.50
2022-12-01T04:13:00.053Z,45.60
2022-12-01T04:14:00.017Z,45.80
2022-12-01T04:15:00.017Z,46.50
2022-12-01T04:16:00.017Z,46.20
2022-12-01T04:16:59.982Z,45.00
2022-12-01T04:17:59.949Z,47.80
2022-12-01T04:19:00.024Z,47.00
2022-12-01T04:19:59.918Z,48.40
2022-12-01T04:20:59.951Z,45.60
2022-12-01T04:21:59.898Z,46.10
2022-12-01T04:22:59.946Z,44.70
2022-12-01T04:23:59.883Z,44.30
2022-12-01T04:24:59.918Z,46.40
2022-12-01T04:25:59.876Z,46.70
2022-12-01T04:26:59.877Z,46.70
2022-12-01T04:27:59.872Z,45.90
2022-12-01T04:28:59.878Z,44.50
2022-12-01T04:29:59.822Z,45.80
2022-12-01T04:30:59.879Z,44.80
2022-12-01T04:31:59.829Z,43.90
2022-12-01T04:32:59.807Z,46.40
2022-12-01T04:33:59.784Z,46.80
2022-12-01T04:34:59.817Z,46.80
2022-12-01T04:35:59.785Z,44.40
2022-12-01T04:36:59.759Z,45.40
2022-12-01T04:37:59.730Z,47.40
2022-12-01T04:38:59.755Z,46.10
2022-12-01T04:39:59.713Z,45.80
2022-12-01T04:40:59.697Z,44.50
2022-12-01T04:41:59.680Z,44.90
2022-12-01T04:42:59.683Z,44.40
2022-12-01T04:43:59.655Z,43.50
2022-12-01T04:44:59.724Z,44.90
2022-12-01T04:45:59.669Z,44.90
2022-12-01T04:46:59.733Z,45.70
2022-12-01T04:47:59.663Z,44.40
2022-12-01T04:48:59.659Z,44.00
2022-12-01T04:49:59.618Z,44.30
2022-12-01T04:50:59.720Z,44.90
2022-12-01T04:51:59.580Z,42.20
2022-12-01T04:52:59.574Z,43.00
2022-12-01T04:53:59.538Z,40.10
2022-12-01T04:54:59.544Z,40.80
2022-12-01T04:55:59.538Z,43.80
2022-12-01T04:56:59.536Z,43.40
2022-12-01T04:57:59.509Z,39.90
2022-12-01T04:58:59.504Z,38.70
2022-12-01T04:59:59.521Z,40.40
2022-12-01T05:00:59.595Z,40.70
2022-12-01T05:01:59.559Z,41.70
2022-12-01T05:02:59.465Z,39.10
2022-12-01T05:03:59.466Z,41.00
2022-12-01T05:04:59.442Z,40.10
2022-12-01T05:05:59.490Z,39.40
2022-12-01T05:06:59.441Z,38.90
2022-12-01T05:07:59.442Z,39.50
2022-12-01T05:08:59.430Z,39.50
2022-12-01T05:09:59.404Z,40.00
2022-12-01T05:10:59.494Z,40.60
2022-12-01T05:11:59.393Z,40.50
2022-12-01T05:12:59.427Z,38.30
2022-12-01T05:13:59.394Z,41.50
2022-12-01T05:14:59.350Z,40.40
2022-12-01T05:15:59.475Z,41.00
2022-12-01T05:16:59.337Z,39.10
2022-12-01T05:17:59.381Z,42.20
2022-12-01T05:18:59.393Z,42.10
2022-12-01T05:19:59.288Z,41.00
2022-12-01T05:20:59.338Z,39.60
2022-12-01T05:21:59.327Z,40.10
2022-12-01T05:23:07.144Z,42.40
2022-12-01T05:24:00.251Z,41.20
2022-12-01T05:24:59.509Z,42.10
2022-12-01T05:25:59.212Z,40.80
2022-12-01T05:26:59.226Z,41.40
2022-12-01T05:27:59.230Z,41.20
2022-12-01T05:28:59.200Z,40.60
2022-12-01T05:29:59.164Z,42.90
2022-12-01T05:30:59.173Z,41.30
2022-12-01T05:31:59.196Z,42.00
2022-12-01T05:32:59.143Z,41.30
2022-12-01T05:33:59.171Z,40.80
2022-12-01T05:34:59.139Z,40.80
2022-12-01T05:35:59.115Z,41.60
2022-12-01T05:37:06.834Z,42.30
2022-12-01T05:38:03.172Z,41.10
2022-12-01T05:39:00.049Z,39.70
2022-12-01T05:39:59.984Z,39.90
2022-12-01T05:40:59.066Z,39.60
2022-12-01T05:41:59.036Z,39.50
2022-12-01T05:42:59.004Z,40.00
2022-12-01T05:43:58.994Z,41.10
2022-12-01T05:44:59.007Z,40.40
2022-12-01T05:45:59.003Z,40.70
2022-12-01T05:46:58.977Z,42.00
2022-12-01T05:47:58.952Z,42.70
2022-12-01T05:48:58.941Z,42.00
2022-12-01T05:50:03.759Z,40.80
2022-12-01T05:50:59.911Z,39.40
2022-12-01T05:51:58.917Z,38.40
2022-12-01T05:52:58.896Z,37.50
2022-12-01T05:53:58.895Z,40.90
2022-12-01T05:54:58.900Z,39.70
2022-12-01T05:55:58.861Z,41.10
2022-12-01T05:56:58.918Z,41.40
2022-12-01T05:57:58.830Z,41.70
2022-12-01T05:58:58.834Z,40.30
2022-12-01T05:59:58.812Z,40.10
2022-12-01T06:00:58.823Z,42.20
2022-12-01T06:01:58.857Z,42.70
2022-12-01T06:02:58.789Z,43.70
2022-12-01T06:03:58.819Z,41.20
2022-12-01T06:04:58.763Z,42.20
2022-12-01T06:05:58.744Z,43.50
2022-12-01T06:06:58.784Z,41.70
2022-12-01T06:07:58.772Z,42.90
2022-12-01T06:08:58.733Z,43.30
2022-12-01T06:09:58.698Z,43.80
2022-12-01T06:10:58.702Z,42.70
2022-12-01T06:11:58.692Z,40.50
2022-12-01T06:12:58.697Z,41.40
2022-12-01T06:13:58.660Z,40.10
2022-12-01T06:14:58.701Z,39.10
2022-12-01T06:15:58.637Z,41.90
2022-12-01T06:16:58.682Z,40.70
2022-12-01T06:17:58.619Z,41.00
2022-12-01T06:18:58.656Z,40.80
2022-12-01T06:19:58.621Z,39.30
2022-12-01T06:20:58.591Z,39.30
2022-12-01T06:21:58.567Z,40.40
2022-12-01T06:22:58.591Z,40.00
2022-12-01T06:23:58.577Z,39.50
2022-12-01T06:24:58.561Z,39.70
2022-12-01T06:25:58.532Z,40.60
2022-12-01T06:26:58.526Z,40.10
2022-12-01T06:27:58.519Z,38.40
2022-12-01T06:28:58.547Z,39.30
2022-12-01T06:29:58.484Z,38.20
2022-12-01T06:31:03.187Z,38.40
2022-12-01T06:31:59.515Z,38.00
2022-12-01T06:32:58.512Z,36.50
2022-12-01T06:33:58.494Z,39.20
2022-12-01T06:34:58.458Z,36.30
2022-12-01T06:35:58.421Z,37.40
2022-12-01T06:36:58.466Z,38.60
2022-12-01T06:37:58.424Z,37.20
2022-12-01T06:38:58.417Z,39.00
2022-12-01T06:39:58.379Z,39.60
2022-12-01T06:40:58.403Z,37.40
2022-12-01T06:41:58.356Z,38.40
2022-12-01T06:42:58.428Z,37.20
2022-12-01T06:43:58.363Z,36.90
2022-12-01T06:44:58.344Z,39.30
2022-12-01T06:46:01.920Z,38.60
2022-12-01T06:46:58.315Z,38.00
2022-12-01T06:47:58.294Z,38.60
2022-12-01T06:48:58.310Z,36.90
2022-12-01T06:49:58.281Z,38.90
2022-12-01T06:50:58.318Z,37.50
2022-12-01T06:52:00.755Z,35.40
2022-12-01T06:52:59.395Z,35.60
2022-12-01T06:54:03.769Z,35.10
2022-12-01T06:55:00.088Z,35.70
2022-12-01T06:55:58.200Z,35.80
2022-12-01T06:56:58.211Z,36.00
2022-12-01T06:57:58.228Z,35.70
2022-12-01T06:58:58.222Z,35.70
2022-12-01T06:59:58.175Z,32.70
2022-12-01T07:00:58.188Z,34.00
2022-12-01T07:01:58.202Z,33.80
2022-12-01T07:02:58.209Z,33.80
2022-12-01T07:03:58.152Z,32.90
2022-12-01T07:04:58.117Z,32.20
2022-12-01T07:05:58.129Z,33.70
2022-12-01T07:06:58.131Z,34.80
2022-12-01T07:07:59.866Z,32.80
2022-12-01T07:08:58.093Z,34.10
2022-12-01T07:09:58.064Z,35.50
2022-12-01T07:10:58.104Z,34.80
2022-12-01T07:11:58.038Z,33.70
2022-12-01T07:12:58.041Z,34.00
2022-12-01T07:13:58.039Z,34.50
2022-12-01T07:14:58.014Z,34.80
2022-12-01T07:15:57.990Z,35.00
2022-12-01T07:16:58.069Z,34.40
2022-12-01T07:17:57.969Z,35.20
2022-12-01T07:18:58.009Z,34.20
2022-12-01T07:19:57.961Z,34.70
2022-12-01T07:20:57.951Z,35.30
2022-12-01T07:21:57.929Z,36.30
2022-12-01T07:22:57.929Z,34.80
2022-12-01T07:23:57.900Z,35.30
2022-12-01T07:24:57.913Z,36.50
2022-12-01T07:25:57.886Z,35.00
2022-12-01T07:26:57.900Z,35.60
2022-12-01T07:27:57.859Z,36.50
2022-12-01T07:28:57.856Z,35.00
2022-12-01T07:29:57.838Z,35.90
2022-12-01T07:30:57.874Z,35.50
2022-12-01T07:31:57.844Z,36.50
2022-12-01T07:32:57.816Z,36.40
2022-12-01T07:33:57.813Z,37.00
2022-12-01T07:34:57.845Z,35.30
2022-12-01T07:35:57.775Z,35.60
2022-12-01T07:36:57.773Z,35.90
2022-12-01T07:37:57.768Z,34.60
2022-12-01T07:38:57.780Z,35.20
2022-12-01T07:39:57.726Z,36.00
2022-12-01T07:40:57.747Z,37.50
2022-12-01T07:41:57.762Z,36.10
2022-12-01T07:42:57.717Z,36.40
2022-12-01T07:43:57.740Z,35.00
2022-12-01T07:44:57.689Z,34.10
2022-12-01T07:45:57.728Z,35.70
2022-12-01T07:46:57.675Z,34.10
2022-12-01T07:47:57.641Z,35.90
2022-12-01T07:48:57.715Z,35.70
2022-12-01T07:49:57.649Z,35.00
2022-12-01T07:50:57.623Z,36.40
2022-12-01T07:51:57.633Z,34.50
2022-12-01T07:52:57.594Z,35.70
2022-12-01T07:53:57.708Z,35.60
2022-12-01T07:54:57.567Z,35.60
2022-12-01T07:55:57.589Z,36.30
2022-12-01T07:56:57.556Z,36.40
2022-12-01T07:57:57.556Z,37.30
2022-12-01T07:58:57.546Z,36.00
2022-12-01T07:59:57.577Z,37.00
2022-12-01T08:00:57.512Z,33.70
2022-12-01T08:01:57.577Z,36.80
2022-12-01T08:02:57.525Z,34.80
2022-12-01T08:03:57.493Z,33.10
2022-12-01T08:04:57.493Z,32.70
2022-12-01T08:05:57.455Z,35.10
2022-12-01T08:06:57.498Z,34.40
2022-12-01T08:07:57.508Z,34.00
2022-12-01T08:08:57.429Z,33.20
2022-12-01T08:09:57.444Z,32.90
2022-12-01T08:10:57.394Z,33.30
2022-12-01T08:11:57.561Z,33.50
2022-12-01T08:12:57.373Z,33.40
2022-12-01T08:13:57.377Z,33.30
2022-12-01T08:14:57.364Z,34.10
2022-12-01T08:15:57.468Z,31.40
2022-12-01T08:16:57.331Z,31.60
2022-12-01T08:17:57.330Z,30.30
2022-12-01T08:18:57.339Z,31.20
2022-12-01T08:19:57.340Z,29.80
2022-12-01T08:20:57.333Z,31.10
2022-12-01T08:21:57.289Z,31.30
2022-12-01T08:22:57.327Z,29.30
2022-12-01T08:23:57.274Z,28.00
2022-12-01T08:24:57.270Z,29.80
2022-12-01T08:25:57.256Z,29.30
2022-12-01T08:26:57.258Z,31.00
2022-12-01T08:27:57.291Z,30.50
2022-12-01T08:28:57.204Z,30.90
2022-12-01T08:29:57.230Z,32.70
2022-12-01T08:30:57.381Z,31.10
2022-12-01T08:31:57.205Z,30.40
2022-12-01T08:32:57.287Z,31.00
2022-12-01T08:33:57.242Z,30.40
2022-12-01T08:34:57.180Z,29.00
2022-12-01T08:35:57.165Z,29.60
2022-12-01T08:36:57.121Z,30.60
2022-12-01T08:37:57.132Z,31.60
2022-12-01T08:38:57.101Z,31.30
2022-12-01T08:39:57.123Z,32.10
2022-12-01T08:40:57.099Z,36.40
2022-12-01T08:41:57.079Z,40.60
2022-12-01T08:42:57.060Z,38.30
2022-12-01T08:43:58.746Z,37.20
2022-12-01T08:44:57.064Z,36.70
2022-12-01T08:45:57.036Z,34.30
2022-12-01T08:46:57.198Z,33.20
2022-12-01T08:47:57.009Z,31.60
2022-12-01T08:48:56.998Z,32.70
2022-12-01T08:49:57.007Z,34.30
2022-12-01T08:50:56.995Z,35.00
2022-12-01T08:51:56.965Z,34.10
2022-12-01T08:52:56.949Z,35.50
2022-12-01T08:53:56.952Z,33.30
2022-12-01T08:54:56.937Z,33.80
2022-12-01T08:55:56.918Z,34.80
2022-12-01T08:56:56.899Z,34.60
2022-12-01T08:57:56.897Z,34.80
2022-12-01T08:58:56.869Z,34.40
2022-12-01T08:59:56.908Z,35.20
2022-12-01T09:00:56.854Z,35.70
2022-12-01T09:01:56.891Z,33.10
2022-12-01T09:02:56.867Z,33.80
2022-12-01T09:03:56.836Z,35.00
2022-12-01T09:04:56.835Z,35.20
2022-12-01T09:05:56.804Z,36.10
2022-12-01T09:06:56.819Z,36.40
2022-12-01T09:07:56.863Z,35.20
2022-12-01T09:08:56.783Z,35.40
2022-12-01T09:09:56.759Z,36.20
2022-12-01T09:10:56.770Z,34.80
2022-12-01T09:11:56.756Z,35.50
2022-12-01T09:12:56.728Z,31.20
2022-12-01T09:13:56.752Z,32.50
2022-12-01T09:14:56.755Z,34.50
2022-12-01T09:15:56.781Z,32.90
2022-12-01T09:16:56.690Z,33.00
2022-12-01T09:17:56.685Z,33.50
2022-12-01T09:18:56.651Z,35.40
2022-12-01T09:19:56.694Z,35.10
2022-12-01T09:20:56.642Z,33.90
2022-12-01T09:21:56.642Z,34.50
2022-12-01T09:22:56.639Z,33.10
2022-12-01T09:23:56.625Z,31.90
2022-12-01T09:24:56.617Z,30.40
2022-12-01T09:25:56.611Z,32.10
2022-12-01T09:26:56.628Z,30.40
2022-12-01T09:27:56.588Z,31.50
2022-12-01T09:28:56.560Z,30.50
2022-12-01T09:29:56.560Z,30.30
2022-12-01T09:30:56.564Z,30.70
2022-12-01T09:31:56.541Z,29.70
2022-12-01T09:32:56.509Z,30.50
2022-12-01T09:33:56.540Z,31.80
2022-12-01T09:34:56.484Z,31.90
2022-12-01T09:35:56.578Z,30.50
2022-12-01T09:36:56.480Z,31.50
2022-12-01T09:37:56.474Z,31.70
2022-12-01T09:38:56.469Z,31.50
2022-12-01T09:39:56.456Z,32.40
2022-12-01T09:40:56.492Z,32.60
2022-12-01T09:41:56.430Z,31.90
2022-12-01T09:42:56.426Z,32.00
2022-12-01T09:43:56.392Z,33.50
2022-12-01T09:44:56.395Z,34.30
2022-12-01T09:45:56.397Z,32.20
2022-12-01T09:46:56.435Z,31.70
2022-12-01T09:47:56.367Z,33.90
2022-12-01T09:48:56.346Z,37.80
2022-12-01T09:49:56.348Z,41.80
2022-12-01T09:50:56.337Z,41.90
2022-12-01T09:51:56.308Z,35.30
2022-12-01T09:52:56.298Z,34.10
2022-12-01T09:53:56.307Z,33.10
2022-12-01T09:54:56.272Z,34.30
2022-12-01T09:56:03.103Z,34.00
2022-12-01T09:56:57.247Z,34.10
2022-12-01T09:57:56.282Z,33.20
2022-12-01T09:58:56.237Z,32.60
2022-12-01T09:59:56.236Z,34.00
2022-12-01T10:00:56.333Z,33.60
2022-12-01T10:01:56.286Z,34.10
2022-12-01T10:02:56.200Z,33.30
2022-12-01T10:03:56.223Z,33.60
2022-12-01T10:04:56.210Z,32.60
2022-12-01T10:06:25.953Z,33.40
2022-12-01T10:06:57.176Z,34.60
2022-12-01T10:07:56.215Z,31.80
2022-12-01T10:08:56.116Z,32.90
2022-12-01T10:09:56.117Z,33.00
2022-12-01T10:10:56.119Z,33.40
2022-12-01T10:11:56.103Z,31.90
2022-12-01T10:12:56.085Z,31.20
2022-12-01T10:13:56.068Z,32.40
2022-12-01T10:14:56.050Z,32.90
2022-12-01T10:15:56.124Z,33.20
2022-12-01T10:16:56.025Z,31.90
2022-12-01T10:17:56.050Z,31.40
2022-12-01T10:18:56.005Z,32.80
2022-12-01T10:19:56.013Z,32.10
2022-12-01T10:20:56.014Z,31.40
2022-12-01T10:21:56.001Z,30.50
2022-12-01T10:22:55.962Z,32.10
2022-12-01T10:23:55.969Z,33.70
2022-12-01T10:24:56.176Z,33.40
2022-12-01T10:25:55.944Z,32.20
2022-12-01T10:26:55.943Z,33.20
2022-12-01T10:27:55.933Z,35.60
2022-12-01T10:28:55.902Z,35.50
2022-12-01T10:29:55.915Z,36.30
2022-12-01T10:30:55.885Z,34.30
2022-12-01T10:31:56.002Z,32.80
2022-12-01T10:32:55.876Z,33.70
2022-12-01T10:33:55.859Z,34.20
2022-12-01T10:34:55.875Z,36.00
2022-12-01T10:35:55.852Z,33.80
2022-12-01T10:36:55.821Z,35.80
2022-12-01T10:37:55.897Z,36.30
2022-12-01T10:38:55.799Z,35.00
2022-12-01T10:39:55.800Z,34.20
2022-12-01T10:40:55.770Z,34.80
2022-12-01T10:41:55.770Z,34.00
2022-12-01T10:42:55.768Z,34.00
2022-12-01T10:43:55.764Z,34.70
2022-12-01T10:44:55.730Z,34.30
2022-12-01T10:45:55.777Z,36.00
2022-12-01T10:46:55.765Z,35.10
2022-12-01T10:47:57.709Z,38.30
2022-12-01T10:48:55.701Z,42.60
2022-12-01T10:49:55.688Z,43.90
2022-12-01T10:50:55.663Z,46.20
2022-12-01T10:51:55.673Z,41.10
2022-12-01T10:52:55.649Z,36.50
2022-12-01T10:53:55.639Z,35.90
2022-12-01T10:54:55.623Z,34.20
2022-12-01T10:55:55.607Z,35.20
2022-12-01T10:56:55.603Z,33.70
2022-12-01T10:57:55.786Z,34.60
2022-12-01T10:58:55.582Z,36.00
2022-12-01T10:59:55.565Z,32.00
2022-12-01T11:01:00.363Z,32.90
2022-12-01T11:01:56.762Z,33.70
2022-12-01T11:02:55.724Z,34.20
2022-12-01T11:03:55.577Z,34.50
2022-12-01T11:04:55.512Z,35.20
2022-12-01T11:05:55.510Z,34.70
2022-12-01T11:06:55.507Z,33.90
2022-12-01T11:07:55.506Z,33.90
2022-12-01T11:08:55.487Z,32.10
2022-12-01T11:09:55.492Z,32.70
2022-12-01T11:10:55.454Z,33.30
2022-12-01T11:11:55.438Z,34.60
2022-12-01T11:12:55.427Z,32.80
2022-12-01T11:13:55.416Z,32.70
2022-12-01T11:14:55.432Z,32.50
2022-12-01T11:15:55.410Z,31.90
2022-12-01T11:16:55.410Z,31.70
2022-12-01T11:17:55.376Z,31.40
2022-12-01T11:18:55.432Z,33.70
2022-12-01T11:19:55.387Z,32.90
2022-12-01T11:20:55.346Z,31.60
2022-12-01T11:21:55.452Z,32.40
2022-12-01T11:22:55.329Z,33.30
2022-12-01T11:23:55.314Z,33.20
2022-12-01T11:24:55.340Z,33.90
2022-12-01T11:25:55.285Z,33.70
2022-12-01T11:26:55.281Z,34.60
2022-12-01T11:27:55.273Z,36.30
2022-12-01T11:28:55.251Z,35.50
2022-12-01T11:29:55.287Z,35.70
2022-12-01T11:30:56.686Z,35.30
2022-12-01T11:31:55.251Z,35.70
2022-12-01T11:32:55.243Z,35.90
2022-12-01T11:33:55.224Z,36.70
2022-12-01T11:34:55.189Z,36.10
2022-12-01T11:35:55.205Z,35.50
2022-12-01T11:36:55.195Z,35.90
2022-12-01T11:38:27.692Z,35.10
2022-12-01T11:38:56.155Z,36.70
2022-12-01T11:39:55.132Z,35.00
2022-12-01T11:40:55.122Z,35.30
2022-12-01T11:41:55.128Z,34.80
2022-12-01T11:42:55.100Z,35.90
2022-12-01T11:44:01.612Z,35.00
2022-12-01T11:44:56.085Z,35.40
2022-12-01T11:45:55.144Z,36.00
2022-12-01T11:47:07.681Z,36.80
2022-12-01T11:47:56.054Z,34.80
2022-12-01T11:48:55.043Z,35.50
2022-12-01T11:49:55.032Z,34.20
2022-12-01T11:50:55.035Z,36.60
2022-12-01T11:51:55.003Z,36.60
2022-12-01T11:52:54.994Z,37.60
2022-12-01T11:53:54.978Z,35.00
2022-12-01T11:54:54.976Z,37.60
2022-12-01T11:55:54.982Z,35.80
2022-12-01T11:57:25.326Z,35.70
2022-12-01T11:57:55.944Z,34.50
2022-12-01T11:58:54.977Z,35.00
2022-12-01T11:59:54.952Z,34.50
2022-12-01T12:00:54.905Z,38.20
2022-12-01T12:01:54.925Z,35.50
2022-12-01T12:02:54.881Z,35.90
2022-12-01T12:03:54.906Z,37.20
2022-12-01T12:04:54.871Z,34.90
2022-12-01T12:06:01.287Z,35.20
2022-12-01T12:06:55.867Z,34.90
2022-12-01T12:07:54.854Z,35.00
2022-12-01T12:08:54.841Z,35.60
2022-12-01T12:09:54.806Z,36.20
2022-12-01T12:10:54.868Z,36.80
2022-12-01T12:11:54.793Z,36.20
2022-12-01T12:12:54.778Z,37.10
2022-12-01T12:13:54.776Z,37.80
2022-12-01T12:14:54.776Z,38.50
2022-12-01T12:15:54.749Z,36.40
2022-12-01T12:16:54.733Z,38.30
2022-12-01T12:17:54.761Z,37.50
2022-12-01T12:18:54.712Z,36.90
2022-12-01T12:20:10.443Z,36.90
2022-12-01T12:20:55.688Z,38.80
2022-12-01T12:21:54.706Z,40.80
2022-12-01T12:22:55.880Z,43.20
2022-12-01T12:23:54.687Z,42.10
2022-12-01T12:24:54.658Z,42.30
2022-12-01T12:25:54.632Z,41.70
2022-12-01T12:26:54.624Z,40.40
2022-12-01T12:27:54.664Z,40.10
2022-12-01T12:28:54.614Z,38.90
2022-12-01T12:29:54.620Z,38.30
2022-12-01T12:30:54.593Z,38.60
2022-12-01T12:31:54.565Z,38.80
2022-12-01T12:32:54.569Z,38.60
2022-12-01T12:33:54.572Z,38.50
2022-12-01T12:34:54.556Z,39.30
2022-12-01T12:35:54.545Z,39.70
2022-12-01T12:36:54.519Z,39.40
2022-12-01T12:37:54.511Z,38.80
2022-12-01T12:38:54.497Z,38.70
2022-12-01T12:39:54.496Z,38.00
2022-12-01T12:40:54.496Z,36.10
2022-12-01T12:41:54.477Z,36.40
2022-12-01T12:42:54.514Z,39.10
2022-12-01T12:43:54.439Z,39.80
2022-12-01T12:44:54.475Z,40.20
2022-12-01T12:45:54.503Z,37.70
2022-12-01T12:46:54.444Z,37.40
2022-12-01T12:47:54.402Z,36.20
2022-12-01T12:49:18.530Z,36.00
2022-12-01T12:49:55.372Z,38.40
2022-12-01T12:50:54.385Z,38.40
2022-12-01T12:51:54.373Z,39.00
2022-12-01T12:52:54.417Z,39.90